Terminal Aerodrome Forecast
Issued by NWS Jacksonville, FL

Home | Current Version | Previous Version | Text Only | Print | Product List | Glossary On
Versions: 1 2 3 4 5 6 7 8 9 10 11 12 13 14 15 16
000
FTUS42 KJAX 171700
TAFJAX
TAF
KJAX 171739Z 1718/1818 28004KT P6SM FEW250
     FM180000 00000KT P6SM SCT250
     FM181400 28004KT P6SM BKN250=

USA.gov is the U.S. government's official web portal to all federal, state and local government web resources and services.